createdAt,value
2022-10-14T00:00:43.773Z,11.50
2022-10-14T00:03:10.538Z,11.40
2022-10-14T00:05:40.537Z,11.50
2022-10-14T00:08:08.880Z,11.40
2022-10-14T00:10:38.744Z,11.10
2022-10-14T00:13:05.910Z,11.10
2022-10-14T00:15:37.078Z,11.20
2022-10-14T00:18:03.861Z,11.60
2022-10-14T00:20:30.621Z,11.60
2022-10-14T00:22:57.569Z,11.70
2022-10-14T00:25:26.214Z,11.70
2022-10-14T00:27:53.246Z,11.70
2022-10-14T00:30:20.801Z,11.80
2022-10-14T00:32:47.617Z,11.40
2022-10-14T00:35:14.470Z,11.80
2022-10-14T00:37:41.223Z,11.80
2022-10-14T00:40:08.435Z,11.70
2022-10-14T00:42:35.431Z,11.70
2022-10-14T00:45:07.016Z,11.60
2022-10-14T00:47:34.102Z,11.70
2022-10-14T00:50:01.238Z,11.70
2022-10-14T00:52:29.099Z,11.80
2022-10-14T00:55:05.945Z,11.90
2022-10-14T00:57:33.336Z,11.90
2022-10-14T01:00:06.207Z,11.90
2022-10-14T01:02:33.227Z,11.80
2022-10-14T01:05:01.511Z,11.80
2022-10-14T01:07:33.943Z,11.80
2022-10-14T01:10:13.730Z,11.70
2022-10-14T01:13:01.490Z,11.70
2022-10-14T01:15:52.135Z,11.70
2022-10-14T01:18:27.736Z,11.70
2022-10-14T01:21:32.094Z,11.40
2022-10-14T01:24:18.878Z,11.30
2022-10-14T01:27:02.051Z,11.40
2022-10-14T01:29:59.747Z,11.60
2022-10-14T01:32:35.814Z,11.60
2022-10-14T01:35:11.797Z,11.60
2022-10-14T01:37:49.088Z,11.80
2022-10-14T01:40:29.832Z,11.70
2022-10-14T01:42:59.038Z,11.70
2022-10-14T01:45:28.785Z,11.80
2022-10-14T01:47:57.357Z,11.70
2022-10-14T01:50:27.667Z,11.50
2022-10-14T01:53:15.106Z,11.50
2022-10-14T01:55:47.400Z,11.60
2022-10-14T01:58:16.888Z,11.70
2022-10-14T02:00:43.833Z,11.80
2022-10-14T02:03:13.528Z,11.90
2022-10-14T02:06:01.646Z,11.80
2022-10-14T02:08:43.034Z,11.80
2022-10-14T02:11:12.448Z,11.70
2022-10-14T02:14:05.153Z,12.50
2022-10-14T02:17:04.417Z,11.80
2022-10-14T02:19:46.131Z,11.70
2022-10-14T02:22:27.596Z,11.70
2022-10-14T02:25:02.955Z,11.60
2022-10-14T02:27:32.521Z,11.60
2022-10-14T02:29:59.986Z,11.70
2022-10-14T02:32:28.363Z,11.60
2022-10-14T02:34:58.510Z,11.70
2022-10-14T02:37:26.757Z,11.70
2022-10-14T02:40:08.297Z,11.70
2022-10-14T02:42:35.215Z,11.70
2022-10-14T02:45:02.250Z,11.70
2022-10-14T02:47:29.319Z,11.50
2022-10-14T02:49:56.042Z,11.50
2022-10-14T02:52:23.144Z,11.60
2022-10-14T02:54:50.205Z,11.70
2022-10-14T02:57:16.964Z,11.90
2022-10-14T02:59:43.731Z,11.70
2022-10-14T03:02:10.489Z,11.60
2022-10-14T03:04:38.061Z,11.50
2022-10-14T03:07:05.033Z,11.60
2022-10-14T03:09:31.802Z,11.80
2022-10-14T03:11:58.568Z,11.70
2022-10-14T03:14:25.263Z,11.70
2022-10-14T03:16:52.105Z,11.80
2022-10-14T03:19:18.913Z,11.90
2022-10-14T03:21:45.713Z,11.70
2022-10-14T03:24:12.481Z,11.60
2022-10-14T03:26:39.231Z,11.50
2022-10-14T03:29:05.977Z,10.90
2022-10-14T03:31:32.662Z,11.30
2022-10-14T03:33:59.495Z,11.30
2022-10-14T03:36:26.298Z,11.40
2022-10-14T03:38:53.054Z,11.50
2022-10-14T03:41:19.771Z,11.60
2022-10-14T03:43:46.670Z,11.60
2022-10-14T03:46:13.374Z,11.70
2022-10-14T03:48:40.110Z,11.90
2022-10-14T03:51:07.789Z,11.90
2022-10-14T03:53:34.667Z,11.60
2022-10-14T03:56:01.530Z,11.50
2022-10-14T03:58:28.256Z,11.40
2022-10-14T04:00:54.999Z,11.40
2022-10-14T04:03:21.697Z,11.60
2022-10-14T04:05:48.457Z,11.60
2022-10-14T04:08:15.272Z,11.70
2022-10-14T04:10:41.942Z,11.60
2022-10-14T04:13:11.428Z,11.50
2022-10-14T04:15:38.354Z,11.60
2022-10-14T04:18:05.317Z,11.60
2022-10-14T04:20:32.143Z,11.70
2022-10-14T04:23:00.974Z,11.70
2022-10-14T04:25:27.852Z,11.90
2022-10-14T04:27:54.817Z,11.80
2022-10-14T04:30:21.609Z,12.10
2022-10-14T04:32:48.469Z,12.10
2022-10-14T04:35:15.634Z,12.20
2022-10-14T04:37:42.335Z,12.30
2022-10-14T04:40:09.499Z,12.30
2022-10-14T04:42:36.284Z,12.40
2022-10-14T04:45:04.687Z,12.40
2022-10-14T04:47:31.782Z,12.40
2022-10-14T04:49:58.605Z,12.30
2022-10-14T04:52:25.575Z,12.20
2022-10-14T04:54:52.275Z,12.20
2022-10-14T04:57:18.965Z,12.00
2022-10-14T04:59:45.687Z,12.00
2022-10-14T05:02:12.424Z,12.10
2022-10-14T05:04:39.271Z,12.20
2022-10-14T05:07:05.991Z,12.40
2022-10-14T05:09:33.449Z,12.60
2022-10-14T05:12:02.152Z,12.50
2022-10-14T05:14:29.603Z,12.50
2022-10-14T05:16:56.375Z,12.30
2022-10-14T05:19:23.147Z,12.20
2022-10-14T05:21:50.029Z,12.30
2022-10-14T05:24:16.783Z,12.30
2022-10-14T05:26:43.507Z,12.30
2022-10-14T05:29:13.483Z,12.30
2022-10-14T05:31:40.298Z,12.40
2022-10-14T05:34:07.140Z,12.30
2022-10-14T05:36:33.881Z,12.30
2022-10-14T05:39:00.578Z,12.30
2022-10-14T05:41:29.161Z,12.20
2022-10-14T05:43:55.992Z,12.10
2022-10-14T05:46:22.766Z,11.70
2022-10-14T05:48:49.468Z,11.70
2022-10-14T05:51:16.619Z,12.20
2022-10-14T05:53:43.627Z,12.00
2022-10-14T05:56:10.906Z,10.30
2022-10-14T05:58:37.717Z,12.00
2022-10-14T06:01:07.524Z,12.10
2022-10-14T06:03:35.166Z,12.20
2022-10-14T06:06:02.374Z,12.20
2022-10-14T06:08:29.448Z,11.90
2022-10-14T06:10:56.440Z,12.00
2022-10-14T06:13:23.278Z,12.00
2022-10-14T06:15:50.055Z,12.00
2022-10-14T06:18:17.171Z,12.10
2022-10-14T06:20:43.959Z,12.10
2022-10-14T06:23:10.755Z,12.20
2022-10-14T06:25:37.453Z,12.30
2022-10-14T06:28:05.350Z,12.30
2022-10-14T06:30:32.767Z,12.40
2022-10-14T06:32:59.502Z,12.50
2022-10-14T06:35:26.574Z,12.50
2022-10-14T06:37:53.317Z,12.50
2022-10-14T06:40:20.315Z,12.60
2022-10-14T06:42:47.007Z,12.60
2022-10-14T06:45:13.842Z,12.60
2022-10-14T06:47:40.582Z,12.60
2022-10-14T06:50:07.760Z,12.50
2022-10-14T06:52:34.575Z,12.30
2022-10-14T06:55:01.376Z,12.50
2022-10-14T06:57:28.098Z,12.60
2022-10-14T06:59:55.009Z,12.70
2022-10-14T07:02:22.009Z,12.30
2022-10-14T07:04:48.869Z,12.70
2022-10-14T07:07:15.600Z,12.90
2022-10-14T07:09:42.493Z,12.80
2022-10-14T07:12:09.337Z,12.70
2022-10-14T07:14:36.022Z,12.80
2022-10-14T07:17:02.989Z,13.10
2022-10-14T07:19:29.696Z,13.40
2022-10-14T07:21:56.407Z,13.20
2022-10-14T07:24:23.142Z,13.30
2022-10-14T07:26:49.979Z,13.40
2022-10-14T07:29:17.070Z,13.50
2022-10-14T07:31:43.874Z,13.60
2022-10-14T07:34:10.609Z,13.60
2022-10-14T07:36:37.585Z,13.60
2022-10-14T07:39:05.878Z,13.70
2022-10-14T07:41:33.576Z,13.80
2022-10-14T07:44:03.226Z,13.80
2022-10-14T07:46:33.017Z,14.00
2022-10-14T07:49:03.136Z,14.20
2022-10-14T07:51:30.397Z,14.40
2022-10-14T07:53:58.893Z,14.50
2022-10-14T07:56:25.991Z,14.60
2022-10-14T07:58:53.275Z,14.90
2022-10-14T08:01:20.641Z,15.00
2022-10-14T08:03:48.427Z,15.10
2022-10-14T08:06:15.846Z,15.30
2022-10-14T08:08:44.171Z,15.30
2022-10-14T08:11:21.586Z,15.30
2022-10-14T08:13:48.997Z,15.50
2022-10-14T08:16:19.068Z,15.40
2022-10-14T08:18:46.921Z,15.50
2022-10-14T08:21:14.642Z,15.40
2022-10-14T08:23:41.584Z,15.30
2022-10-14T08:26:31.039Z,15.00
2022-10-14T08:29:01.317Z,15.50
2022-10-14T08:31:28.850Z,16.30
2022-10-14T08:33:55.577Z,15.10
2022-10-14T08:36:23.035Z,15.00
2022-10-14T08:38:52.290Z,15.00
2022-10-14T08:41:23.203Z,15.20
2022-10-14T08:44:16.056Z,15.20
2022-10-14T08:46:54.447Z,15.20
2022-10-14T08:49:32.906Z,15.10
2022-10-14T08:52:14.059Z,15.00
2022-10-14T08:54:44.279Z,15.20
2022-10-14T08:57:19.294Z,15.30
2022-10-14T08:59:46.457Z,15.10
2022-10-14T09:02:40.737Z,15.10
2022-10-14T09:05:25.185Z,15.00
2022-10-14T09:07:55.259Z,15.20
2022-10-14T09:10:34.716Z,15.40
2022-10-14T09:13:20.101Z,15.50
2022-10-14T09:15:53.193Z,15.70
2022-10-14T09:18:25.547Z,15.60
2022-10-14T09:20:53.703Z,15.40
2022-10-14T09:23:23.474Z,15.50
2022-10-14T09:25:56.184Z,15.60
2022-10-14T09:28:31.031Z,15.60
2022-10-14T09:30:57.908Z,15.80
2022-10-14T09:33:28.497Z,15.90
2022-10-14T09:38:26.660Z,15.50
2022-10-14T09:40:59.632Z,15.70
2022-10-14T09:43:26.600Z,15.90
2022-10-14T09:46:08.126Z,15.80
2022-10-14T09:48:51.097Z,15.90
2022-10-14T09:51:28.107Z,15.70
2022-10-14T09:53:57.176Z,15.70
2022-10-14T09:56:40.758Z,15.70
2022-10-14T09:59:22.615Z,15.80
2022-10-14T10:01:50.498Z,15.70
2022-10-14T10:04:42.982Z,15.60
2022-10-14T10:07:31.370Z,15.80
2022-10-14T10:10:16.390Z,16.10
2022-10-14T10:12:47.734Z,16.30
2022-10-14T10:15:21.603Z,16.10
2022-10-14T10:17:49.752Z,16.20
2022-10-14T10:20:31.997Z,15.90
2022-10-14T10:23:26.792Z,16.00
2022-10-14T10:25:53.755Z,16.00
2022-10-14T10:28:32.329Z,16.00
2022-10-14T10:31:35.263Z,16.10
2022-10-14T10:34:39.528Z,16.20
2022-10-14T10:37:17.270Z,15.90
2022-10-14T10:39:49.783Z,15.90
2022-10-14T10:42:21.546Z,15.80
2022-10-14T10:45:03.617Z,16.00
2022-10-14T10:47:49.420Z,16.10
2022-10-14T10:50:29.082Z,16.30
2022-10-14T10:53:05.423Z,16.50
2022-10-14T10:55:57.526Z,16.20
2022-10-14T10:58:55.049Z,16.30
2022-10-14T11:01:59.606Z,16.20
2022-10-14T11:04:46.992Z,16.40
2022-10-14T11:07:45.167Z,16.40
2022-10-14T11:10:59.105Z,16.20
2022-10-14T11:13:29.313Z,16.30
2022-10-14T11:16:04.934Z,16.20
2022-10-14T11:18:57.408Z,16.40
2022-10-14T11:21:24.309Z,15.80
2022-10-14T11:24:03.310Z,16.00
2022-10-14T11:26:53.793Z,15.90
2022-10-14T11:29:35.525Z,16.00
2022-10-14T11:32:24.904Z,16.10
2022-10-14T11:35:28.724Z,16.10
2022-10-14T11:38:10.630Z,16.20
2022-10-14T11:40:51.215Z,16.30
2022-10-14T11:43:39.438Z,16.10
2022-10-14T11:46:18.071Z,16.10
2022-10-14T11:48:58.221Z,16.20
2022-10-14T11:51:42.628Z,16.10
2022-10-14T11:54:18.697Z,16.80
2022-10-14T11:56:54.775Z,15.90
2022-10-14T11:59:40.506Z,17.50
2022-10-14T12:02:28.189Z,15.90
2022-10-14T12:05:10.247Z,15.90
2022-10-14T12:07:46.933Z,16.30
2022-10-14T12:10:22.751Z,16.20
2022-10-14T12:12:51.231Z,16.30
2022-10-14T12:15:25.342Z,16.00
2022-10-14T12:18:01.524Z,16.10
2022-10-14T12:20:40.150Z,15.60
2022-10-14T12:23:11.060Z,15.60
2022-10-14T12:25:45.743Z,15.60
2022-10-14T12:28:14.052Z,15.50
2022-10-14T12:30:42.492Z,15.80
2022-10-14T12:33:16.701Z,16.00
2022-10-14T12:35:59.710Z,15.80
2022-10-14T12:38:29.287Z,15.80
2022-10-14T12:41:39.484Z,15.70
2022-10-14T12:44:14.274Z,15.50
2022-10-14T12:46:45.946Z,15.50
2022-10-14T12:49:28.974Z,15.80
2022-10-14T12:51:58.792Z,15.90
2022-10-14T12:54:26.951Z,15.80
2022-10-14T12:57:03.291Z,15.80
2022-10-14T12:59:31.384Z,15.60
2022-10-14T13:02:02.776Z,15.90
2022-10-14T13:04:30.485Z,16.30
2022-10-14T13:07:38.870Z,16.30
2022-10-14T13:10:41.870Z,16.10
2022-10-14T13:13:42.012Z,16.20
2022-10-14T13:16:09.856Z,16.60
2022-10-14T13:18:42.379Z,16.40
2022-10-14T13:21:20.316Z,16.50
2022-10-14T13:23:51.120Z,16.70
2022-10-14T13:26:28.731Z,16.90
2022-10-14T13:29:20.419Z,17.10
2022-10-14T13:31:59.619Z,17.30
2022-10-14T13:34:34.851Z,17.70
2022-10-14T13:37:25.505Z,17.90
2022-10-14T13:39:57.399Z,17.80
2022-10-14T13:42:32.164Z,18.90
2022-10-14T13:45:08.031Z,17.30
2022-10-14T13:47:36.395Z,17.00
2022-10-14T13:50:05.355Z,17.40
2022-10-14T13:52:34.002Z,17.70
2022-10-14T13:55:20.679Z,17.40
2022-10-14T13:58:21.416Z,17.10
2022-10-14T14:01:00.111Z,17.10
2022-10-14T14:03:31.685Z,17.10
2022-10-14T14:05:59.913Z,17.30
2022-10-14T14:08:46.044Z,17.30
2022-10-14T14:11:31.355Z,17.60
2022-10-14T14:14:04.186Z,18.00
2022-10-14T14:16:40.725Z,18.50
2022-10-14T14:19:25.451Z,17.90
2022-10-14T14:21:52.737Z,17.50
2022-10-14T14:24:26.246Z,17.50
2022-10-14T14:26:56.612Z,17.40
2022-10-14T14:29:27.444Z,17.50
2022-10-14T14:32:06.147Z,17.70
2022-10-14T14:34:36.703Z,17.60
2022-10-14T14:37:36.822Z,17.90
2022-10-14T14:40:08.132Z,18.60
2022-10-14T14:42:39.568Z,18.90
2022-10-14T14:45:39.344Z,19.50
2022-10-14T14:48:07.815Z,19.20
2022-10-14T14:50:43.875Z,19.40
2022-10-14T14:53:29.679Z,19.10
2022-10-14T14:55:56.493Z,19.10
2022-10-14T14:58:35.132Z,19.00
2022-10-14T15:01:19.430Z,18.80
2022-10-14T15:04:12.584Z,18.30
2022-10-14T15:06:51.500Z,18.20
2022-10-14T15:09:36.239Z,18.90
2022-10-14T15:12:06.682Z,19.70
2022-10-14T15:14:47.739Z,20.70
2022-10-14T15:17:40.168Z,21.80
2022-10-14T15:20:29.546Z,21.90
2022-10-14T15:22:56.319Z,22.50
2022-10-14T15:25:27.898Z,21.10
2022-10-14T15:27:59.178Z,20.70
2022-10-14T15:30:39.278Z,19.60
2022-10-14T15:33:15.951Z,18.60
2022-10-14T15:35:44.434Z,18.30
2022-10-14T15:38:19.239Z,18.00
2022-10-14T15:40:47.923Z,18.10
2022-10-14T15:43:17.810Z,18.00
2022-10-14T15:45:47.410Z,17.70
2022-10-14T15:48:19.910Z,17.60
2022-10-14T15:50:52.567Z,17.70
2022-10-14T15:53:26.080Z,17.60
2022-10-14T15:55:53.449Z,17.50
2022-10-14T15:58:20.222Z,17.40
2022-10-14T16:00:47.283Z,17.20
2022-10-14T16:03:17.630Z,17.00
2022-10-14T16:05:45.242Z,16.80
2022-10-14T16:08:17.652Z,16.50
2022-10-14T16:10:45.868Z,16.60
2022-10-14T16:13:13.061Z,16.60
2022-10-14T16:15:42.790Z,16.60
2022-10-14T16:18:09.562Z,16.80
2022-10-14T16:20:36.303Z,16.70
2022-10-14T16:23:04.691Z,16.70
2022-10-14T16:25:41.189Z,16.50
2022-10-14T16:28:10.030Z,16.40
2022-10-14T16:30:39.732Z,16.40
2022-10-14T16:33:07.573Z,16.60
2022-10-14T16:35:34.379Z,16.50
2022-10-14T16:38:01.182Z,16.70
2022-10-14T16:40:27.988Z,16.70
2022-10-14T16:42:54.861Z,16.50
2022-10-14T16:45:21.570Z,16.60
2022-10-14T16:47:48.344Z,16.40
2022-10-14T16:50:15.146Z,16.50
2022-10-14T16:53:03.554Z,15.80
2022-10-14T16:55:34.699Z,16.70
2022-10-14T16:58:01.519Z,16.50
2022-10-14T17:00:29.177Z,16.60
2022-10-14T17:02:55.925Z,16.50
2022-10-14T17:05:22.793Z,16.30
2022-10-14T17:07:49.594Z,16.10
2022-10-14T17:10:17.127Z,15.80
2022-10-14T17:12:43.884Z,16.00
2022-10-14T17:15:11.096Z,16.00
2022-10-14T17:17:39.999Z,16.00
2022-10-14T17:20:09.349Z,16.10
2022-10-14T17:22:36.547Z,15.80
2022-10-14T17:25:03.569Z,16.00
2022-10-14T17:27:30.331Z,17.10
2022-10-14T17:29:57.181Z,15.90
2022-10-14T17:32:24.250Z,15.70
2022-10-14T17:34:53.502Z,15.60
2022-10-14T17:37:20.612Z,15.60
2022-10-14T17:39:50.028Z,15.50
2022-10-14T17:42:16.865Z,15.30
2022-10-14T17:44:44.023Z,15.30
2022-10-14T17:47:11.310Z,15.30
2022-10-14T17:49:38.366Z,15.30
2022-10-14T17:52:06.270Z,14.60
2022-10-14T17:54:33.202Z,15.20
2022-10-14T17:56:59.962Z,15.30
2022-10-14T17:59:27.421Z,15.30
2022-10-14T18:02:03.169Z,15.20
2022-10-14T18:04:30.593Z,15.20
2022-10-14T18:06:58.569Z,15.10
2022-10-14T18:09:25.470Z,15.20
2022-10-14T18:12:09.157Z,15.10
2022-10-14T18:14:36.715Z,15.10
2022-10-14T18:17:05.258Z,15.20
2022-10-14T18:19:32.189Z,15.20
2022-10-14T18:21:59.195Z,15.10
2022-10-14T18:24:26.097Z,15.10
2022-10-14T18:26:53.303Z,15.10
2022-10-14T18:29:20.378Z,15.00
2022-10-14T18:31:49.331Z,15.00
2022-10-14T18:34:16.221Z,15.00
2022-10-14T18:36:43.375Z,14.80
2022-10-14T18:39:11.662Z,14.90
2022-10-14T18:41:39.140Z,14.70
2022-10-14T18:44:06.880Z,14.60
2022-10-14T18:46:36.148Z,14.60
2022-10-14T18:49:04.858Z,14.60
2022-10-14T18:51:35.071Z,14.30
2022-10-14T18:54:08.292Z,14.40
2022-10-14T18:56:38.668Z,14.50
2022-10-14T18:59:14.218Z,14.50
2022-10-14T19:01:41.774Z,14.50
2022-10-14T19:04:10.727Z,14.60
2022-10-14T19:06:37.556Z,14.50
2022-10-14T19:09:05.128Z,14.60
2022-10-14T19:11:33.947Z,14.50
2022-10-14T19:14:04.020Z,14.60
2022-10-14T19:16:36.726Z,14.60
2022-10-14T19:19:11.921Z,14.50
2022-10-14T19:21:39.684Z,14.50
2022-10-14T19:24:08.296Z,14.50
2022-10-14T19:26:37.854Z,14.50
2022-10-14T19:29:09.119Z,14.50
2022-10-14T19:31:39.025Z,14.50
2022-10-14T19:34:08.133Z,14.50
2022-10-14T19:36:38.145Z,14.40
2022-10-14T19:39:07.233Z,14.50
2022-10-14T19:41:42.572Z,14.50
2022-10-14T19:44:10.474Z,14.50
2022-10-14T19:46:37.602Z,14.50
2022-10-14T19:49:05.268Z,14.30
2022-10-14T19:51:35.464Z,14.20
2022-10-14T19:54:02.353Z,14.10
2022-10-14T19:56:29.893Z,14.20
2022-10-14T19:58:58.574Z,14.00
2022-10-14T20:01:28.408Z,13.90
2022-10-14T20:03:55.624Z,14.10
2022-10-14T20:06:23.744Z,14.10
2022-10-14T20:08:51.360Z,14.10
2022-10-14T20:11:19.993Z,14.10
2022-10-14T20:13:47.003Z,14.00
2022-10-14T20:16:14.713Z,14.00
2022-10-14T20:18:42.197Z,14.00
2022-10-14T20:21:11.963Z,14.10
2022-10-14T20:23:39.124Z,14.10
2022-10-14T20:26:08.595Z,14.20
2022-10-14T20:28:36.570Z,14.20
2022-10-14T20:31:07.639Z,14.20
2022-10-14T20:33:34.645Z,14.20
2022-10-14T20:36:07.145Z,14.20
2022-10-14T20:38:34.610Z,13.60
2022-10-14T20:41:19.959Z,13.40
2022-10-14T20:43:47.924Z,13.20
2022-10-14T20:46:15.125Z,13.10
2022-10-14T20:48:42.535Z,13.30
2022-10-14T20:51:15.727Z,13.30
2022-10-14T20:53:42.703Z,13.10
2022-10-14T20:56:11.657Z,13.20
2022-10-14T20:58:38.695Z,13.10
2022-10-14T21:01:15.909Z,13.10
2022-10-14T21:03:45.031Z,13.20
2022-10-14T21:06:15.760Z,13.30
2022-10-14T21:08:43.096Z,13.30
2022-10-14T21:11:15.028Z,13.20
2022-10-14T21:13:51.966Z,13.10
2022-10-14T21:16:28.165Z,13.20
2022-10-14T21:19:03.358Z,13.30
2022-10-14T21:21:38.876Z,13.30
2022-10-14T21:24:06.260Z,13.10
2022-10-14T21:26:33.097Z,13.20
2022-10-14T21:29:02.384Z,13.20
2022-10-14T21:31:29.249Z,13.10
2022-10-14T21:34:02.589Z,13.20
2022-10-14T21:36:32.261Z,13.30
2022-10-14T21:39:00.885Z,13.30
2022-10-14T21:41:28.267Z,13.30
2022-10-14T21:43:59.244Z,13.20
2022-10-14T21:46:27.172Z,13.20
2022-10-14T21:48:59.101Z,13.30
2022-10-14T21:51:28.791Z,13.20
2022-10-14T21:53:56.461Z,13.10
2022-10-14T21:56:24.190Z,13.00
2022-10-14T21:58:50.913Z,13.00
2022-10-14T22:01:30.698Z,12.90
2022-10-14T22:04:00.026Z,12.80
2022-10-14T22:06:27.842Z,12.80
2022-10-14T22:08:56.936Z,12.70
2022-10-14T22:11:30.058Z,12.90
2022-10-14T22:13:58.413Z,12.90
2022-10-14T22:16:26.099Z,12.50
2022-10-14T22:18:53.784Z,12.40
2022-10-14T22:21:23.348Z,12.30
2022-10-14T22:23:51.320Z,12.30
2022-10-14T22:26:23.282Z,12.30
2022-10-14T22:28:56.663Z,12.30
2022-10-14T22:31:23.435Z,12.30
2022-10-14T22:33:50.147Z,12.30
2022-10-14T22:36:23.875Z,12.20
2022-10-14T22:38:53.571Z,12.00
2022-10-14T22:41:21.587Z,11.90
2022-10-14T22:43:54.267Z,12.00
2022-10-14T22:46:23.752Z,11.80
2022-10-14T22:48:56.222Z,11.70
2022-10-14T22:51:31.434Z,11.50
2022-10-14T22:53:58.350Z,11.30
2022-10-14T22:56:27.401Z,11.10
2022-10-14T22:59:02.680Z,11.10
2022-10-14T23:01:30.478Z,11.30
2022-10-14T23:03:58.204Z,11.40
2022-10-14T23:06:25.395Z,11.40
2022-10-14T23:08:52.366Z,11.50
2022-10-14T23:11:20.978Z,11.60
2022-10-14T23:13:48.238Z,11.40
2022-10-14T23:16:23.663Z,11.30
2022-10-14T23:18:51.548Z,11.20
2022-10-14T23:21:18.245Z,12.20
2022-10-14T23:23:45.785Z,10.80
2022-10-14T23:26:14.890Z,10.50
2022-10-14T23:28:42.164Z,10.60
2022-10-14T23:31:10.171Z,10.90
2022-10-14T23:33:36.971Z,11.10
2022-10-14T23:36:05.568Z,11.10
2022-10-14T23:38:33.825Z,10.90
2022-10-14T23:41:02.727Z,11.00
2022-10-14T23:43:29.874Z,13.00
2022-10-14T23:45:56.668Z,11.30
2022-10-14T23:48:24.304Z,11.20
2022-10-14T23:50:51.201Z,11.30
2022-10-14T23:53:18.184Z,11.10
2022-10-14T23:55:45.564Z,11.00
2022-10-14T23:58:12.727Z,11.00
